sensor_id;sensor_type;location;lat;lon;timestamp;temperature;humidity
13694;DHT22;6919;52.344;14.518;2023-04-25T00:02:15;7.80;1.00
13694;DHT22;6919;52.344;14.518;2023-04-25T00:04:44;7.90;2.70
13694;DHT22;6919;52.344;14.518;2023-04-25T00:07:16;7.90;28.00
13694;DHT22;6919;52.344;14.518;2023-04-25T00:09:45;7.80;99.90
13694;DHT22;6919;52.344;14.518;2023-04-25T00:12:14;7.90;99.90
13694;DHT22;6919;52.344;14.518;2023-04-25T00:14:42;7.90;99.90
13694;DHT22;6919;52.344;14.518;2023-04-25T00:17:12;7.80;1.00
13694;DHT22;6919;52.344;14.518;2023-04-25T00:19:40;7.70;1.00
13694;DHT22;6919;52.344;14.518;2023-04-25T00:22:08;7.60;1.00
13694;DHT22;6919;52.344;14.518;2023-04-25T00:24:36;7.70;1.00
13694;DHT22;6919;52.344;14.518;2023-04-25T00:27:06;7.70;1.00
13694;DHT22;6919;52.344;14.518;2023-04-25T00:29:34;7.90;1.00
13694;DHT22;6919;52.344;14.518;2023-04-25T00:32:03;7.80;99.90
13694;DHT22;6919;52.344;14.518;2023-04-25T00:34:31;7.80;1.00
13694;DHT22;6919;52.344;14.518;2023-04-25T00:36:59;7.80;1.00
13694;DHT22;6919;52.344;14.518;2023-04-25T00:39:29;7.70;1.00
13694;DHT22;6919;52.344;14.518;2023-04-25T00:41:58;7.70;1.00
13694;DHT22;6919;52.344;14.518;2023-04-25T00:44:27;7.70;1.00
13694;DHT22;6919;52.344;14.518;2023-04-25T00:46:57;7.70;57.40
13694;DHT22;6919;52.344;14.518;2023-04-25T00:49:25;7.70;1.00
13694;DHT22;6919;52.344;14.518;2023-04-25T00:51:54;7.60;1.00
13694;DHT22;6919;52.344;14.518;2023-04-25T00:54:23;7.60;1.00
13694;DHT22;6919;52.344;14.518;2023-04-25T00:56:52;7.50;99.90
13694;DHT22;6919;52.344;14.518;2023-04-25T00:59:21;7.40;99.90
13694;DHT22;6919;52.344;14.518;2023-04-25T01:01:51;7.40;99.90
13694;DHT22;6919;52.344;14.518;2023-04-25T01:04:20;7.50;99.90
13694;DHT22;6919;52.344;14.518;2023-04-25T01:06:49;7.40;99.90
13694;DHT22;6919;52.344;14.518;2023-04-25T01:09:19;7.40;99.90
13694;DHT22;6919;52.344;14.518;2023-04-25T01:11:47;7.30;99.90
13694;DHT22;6919;52.344;14.518;2023-04-25T01:14:16;7.30;99.90
13694;DHT22;6919;52.344;14.518;2023-04-25T01:16:45;7.30;99.90
13694;DHT22;6919;52.344;14.518;2023-04-25T01:19:17;7.40;99.90
13694;DHT22;6919;52.344;14.518;2023-04-25T01:21:47;7.30;99.90
13694;DHT22;6919;52.344;14.518;2023-04-25T01:24:16;7.10;99.90
13694;DHT22;6919;52.344;14.518;2023-04-25T01:26:46;7.10;99.90
13694;DHT22;6919;52.344;14.518;2023-04-25T01:29:19;7.00;1.00
13694;DHT22;6919;52.344;14.518;2023-04-25T01:31:48;6.90;1.00
13694;DHT22;6919;52.344;14.518;2023-04-25T01:34:17;6.80;1.00
13694;DHT22;6919;52.344;14.518;2023-04-25T01:36:49;6.80;1.00
13694;DHT22;6919;52.344;14.518;2023-04-25T01:39:21;6.80;1.00
13694;DHT22;6919;52.344;14.518;2023-04-25T01:41:49;6.90;1.00
13694;DHT22;6919;52.344;14.518;2023-04-25T01:44:18;6.80;1.00
13694;DHT22;6919;52.344;14.518;2023-04-25T01:46:46;6.90;1.00
13694;DHT22;6919;52.344;14.518;2023-04-25T01:49:14;6.70;1.00
13694;DHT22;6919;52.344;14.518;2023-04-25T01:51:43;6.70;1.00
13694;DHT22;6919;52.344;14.518;2023-04-25T01:54:13;6.80;1.00
13694;DHT22;6919;52.344;14.518;2023-04-25T01:56:41;6.70;1.00
13694;DHT22;6919;52.344;14.518;2023-04-25T01:59:10;6.70;1.00
13694;DHT22;6919;52.344;14.518;2023-04-25T02:01:38;6.70;1.00
13694;DHT22;6919;52.344;14.518;2023-04-25T02:04:06;6.70;1.00
13694;DHT22;6919;52.344;14.518;2023-04-25T02:06:35;6.60;1.00
13694;DHT22;6919;52.344;14.518;2023-04-25T02:09:03;6.70;1.00
13694;DHT22;6919;52.344;14.518;2023-04-25T02:11:33;6.60;1.00
13694;DHT22;6919;52.344;14.518;2023-04-25T02:14:01;6.70;1.00
13694;DHT22;6919;52.344;14.518;2023-04-25T02:16:29;6.70;1.00
13694;DHT22;6919;52.344;14.518;2023-04-25T02:18:58;6.80;1.00
13694;DHT22;6919;52.344;14.518;2023-04-25T02:21:26;6.60;99.90
13694;DHT22;6919;52.344;14.518;2023-04-25T02:23:55;6.50;1.00
13694;DHT22;6919;52.344;14.518;2023-04-25T02:26:23;6.60;1.00
13694;DHT22;6919;52.344;14.518;2023-04-25T02:28:56;6.30;1.00
13694;DHT22;6919;52.344;14.518;2023-04-25T02:31:25;6.20;1.00
13694;DHT22;6919;52.344;14.518;2023-04-25T02:33:53;6.30;1.00
13694;DHT22;6919;52.344;14.518;2023-04-25T02:36:22;6.30;1.00
13694;DHT22;6919;52.344;14.518;2023-04-25T02:38:50;6.20;1.00
13694;DHT22;6919;52.344;14.518;2023-04-25T02:41:19;6.30;1.00
13694;DHT22;6919;52.344;14.518;2023-04-25T02:43:48;6.40;1.00
13694;DHT22;6919;52.344;14.518;2023-04-25T02:46:18;6.50;1.00
13694;DHT22;6919;52.344;14.518;2023-04-25T02:49:04;6.60;1.00
13694;DHT22;6919;52.344;14.518;2023-04-25T02:51:32;6.70;1.00
13694;DHT22;6919;52.344;14.518;2023-04-25T02:54:01;6.90;1.00
13694;DHT22;6919;52.344;14.518;2023-04-25T02:56:29;6.80;1.00
13694;DHT22;6919;52.344;14.518;2023-04-25T02:58:58;6.90;1.00
13694;DHT22;6919;52.344;14.518;2023-04-25T03:01:28;6.90;1.00
13694;DHT22;6919;52.344;14.518;2023-04-25T03:03:56;6.90;1.00
13694;DHT22;6919;52.344;14.518;2023-04-25T03:06:24;6.90;1.00
13694;DHT22;6919;52.344;14.518;2023-04-25T03:08:53;6.80;1.00
13694;DHT22;6919;52.344;14.518;2023-04-25T03:11:21;7.00;1.00
13694;DHT22;6919;52.344;14.518;2023-04-25T03:13:50;7.10;1.00
13694;DHT22;6919;52.344;14.518;2023-04-25T03:16:19;7.10;1.00
13694;DHT22;6919;52.344;14.518;2023-04-25T03:18:49;6.60;1.00
13694;DHT22;6919;52.344;14.518;2023-04-25T03:21:18;7.00;1.00
13694;DHT22;6919;52.344;14.518;2023-04-25T03:23:46;6.90;1.00
13694;DHT22;6919;52.344;14.518;2023-04-25T03:26:15;6.90;1.00
13694;DHT22;6919;52.344;14.518;2023-04-25T03:28:44;7.00;1.00
13694;DHT22;6919;52.344;14.518;2023-04-25T03:31:15;7.00;1.00
13694;DHT22;6919;52.344;14.518;2023-04-25T03:33:43;7.10;1.00
13694;DHT22;6919;52.344;14.518;2023-04-25T03:36:13;7.30;99.90
13694;DHT22;6919;52.344;14.518;2023-04-25T03:38:43;7.20;99.90
13694;DHT22;6919;52.344;14.518;2023-04-25T03:41:11;7.20;99.90
13694;DHT22;6919;52.344;14.518;2023-04-25T03:43:39;7.20;99.90
13694;DHT22;6919;52.344;14.518;2023-04-25T03:46:08;7.20;99.90
13694;DHT22;6919;52.344;14.518;2023-04-25T03:48:36;7.20;99.90
13694;DHT22;6919;52.344;14.518;2023-04-25T03:51:04;7.20;99.90
13694;DHT22;6919;52.344;14.518;2023-04-25T03:53:34;7.30;99.90
13694;DHT22;6919;52.344;14.518;2023-04-25T03:56:03;7.40;99.90
13694;DHT22;6919;52.344;14.518;2023-04-25T03:58:32;7.40;1.00
13694;DHT22;6919;52.344;14.518;2023-04-25T04:01:00;7.50;1.00
13694;DHT22;6919;52.344;14.518;2023-04-25T04:03:29;7.50;99.90
13694;DHT22;6919;52.344;14.518;2023-04-25T04:05:58;7.60;27.30
13694;DHT22;6919;52.344;14.518;2023-04-25T04:08:26;7.40;1.00
13694;DHT22;6919;52.344;14.518;2023-04-25T04:10:56;7.40;99.90
13694;DHT22;6919;52.344;14.518;2023-04-25T04:13:25;7.40;1.00
13694;DHT22;6919;52.344;14.518;2023-04-25T04:15:54;7.50;1.00
13694;DHT22;6919;52.344;14.518;2023-04-25T04:18:24;7.40;1.00
13694;DHT22;6919;52.344;14.518;2023-04-25T04:20:53;7.40;1.00
13694;DHT22;6919;52.344;14.518;2023-04-25T04:23:21;7.40;1.00
13694;DHT22;6919;52.344;14.518;2023-04-25T04:25:50;7.40;1.00
13694;DHT22;6919;52.344;14.518;2023-04-25T04:28:23;7.30;1.00
13694;DHT22;6919;52.344;14.518;2023-04-25T04:30:52;7.40;1.00
13694;DHT22;6919;52.344;14.518;2023-04-25T04:33:20;7.40;1.00
13694;DHT22;6919;52.344;14.518;2023-04-25T04:35:53;7.50;1.00
13694;DHT22;6919;52.344;14.518;2023-04-25T04:38:22;7.40;1.00
13694;DHT22;6919;52.344;14.518;2023-04-25T04:40:52;7.40;1.00
13694;DHT22;6919;52.344;14.518;2023-04-25T04:43:20;7.50;1.00
13694;DHT22;6919;52.344;14.518;2023-04-25T04:45:51;7.50;1.00
13694;DHT22;6919;52.344;14.518;2023-04-25T04:48:22;7.40;15.10
13694;DHT22;6919;52.344;14.518;2023-04-25T04:50:51;7.50;1.00
13694;DHT22;6919;52.344;14.518;2023-04-25T04:53:20;7.50;1.00
13694;DHT22;6919;52.344;14.518;2023-04-25T04:55:48;7.60;99.20
13694;DHT22;6919;52.344;14.518;2023-04-25T04:58:16;7.60;98.30
13694;DHT22;6919;52.344;14.518;2023-04-25T05:00:46;7.60;1.00
13694;DHT22;6919;52.344;14.518;2023-04-25T05:03:15;7.70;46.90
13694;DHT22;6919;52.344;14.518;2023-04-25T05:05:43;7.80;99.90
13694;DHT22;6919;52.344;14.518;2023-04-25T05:08:12;7.80;99.90
13694;DHT22;6919;52.344;14.518;2023-04-25T05:10:40;7.80;99.90
13694;DHT22;6919;52.344;14.518;2023-04-25T05:13:09;7.80;1.00
13694;DHT22;6919;52.344;14.518;2023-04-25T05:15:37;7.90;99.90
13694;DHT22;6919;52.344;14.518;2023-04-25T05:18:07;7.80;1.00
13694;DHT22;6919;52.344;14.518;2023-04-25T05:20:36;8.00;1.00
13694;DHT22;6919;52.344;14.518;2023-04-25T05:23:04;7.90;99.90
13694;DHT22;6919;52.344;14.518;2023-04-25T05:25:33;7.80;1.00
13694;DHT22;6919;52.344;14.518;2023-04-25T05:28:01;8.10;1.00
13694;DHT22;6919;52.344;14.518;2023-04-25T05:30:30;8.20;1.00
13694;DHT22;6919;52.344;14.518;2023-04-25T05:32:58;8.10;1.00
13694;DHT22;6919;52.344;14.518;2023-04-25T05:35:28;8.20;1.00
13694;DHT22;6919;52.344;14.518;2023-04-25T05:37:57;8.20;99.90
13694;DHT22;6919;52.344;14.518;2023-04-25T05:40:25;8.00;1.00
13694;DHT22;6919;52.344;14.518;2023-04-25T05:42:54;8.00;99.90
13694;DHT22;6919;52.344;14.518;2023-04-25T05:45:22;8.30;99.90
13694;DHT22;6919;52.344;14.518;2023-04-25T05:47:51;8.30;99.90
13694;DHT22;6919;52.344;14.518;2023-04-25T05:50:20;8.10;99.90
13694;DHT22;6919;52.344;14.518;2023-04-25T05:52:53;8.10;1.00
13694;DHT22;6919;52.344;14.518;2023-04-25T05:55:22;8.10;1.00
13694;DHT22;6919;52.344;14.518;2023-04-25T05:57:50;8.20;1.00
13694;DHT22;6919;52.344;14.518;2023-04-25T06:00:20;8.40;99.90
13694;DHT22;6919;52.344;14.518;2023-04-25T06:02:49;8.40;1.00
13694;DHT22;6919;52.344;14.518;2023-04-25T06:05:18;8.20;1.00
13694;DHT22;6919;52.344;14.518;2023-04-25T06:07:46;8.10;6.00
13694;DHT22;6919;52.344;14.518;2023-04-25T06:10:16;8.20;99.90
13694;DHT22;6919;52.344;14.518;2023-04-25T06:12:45;8.40;99.90
13694;DHT22;6919;52.344;14.518;2023-04-25T06:15:13;8.50;1.00
13694;DHT22;6919;52.344;14.518;2023-04-25T06:17:54;8.50;99.90
13694;DHT22;6919;52.344;14.518;2023-04-25T06:20:23;8.50;1.00
13694;DHT22;6919;52.344;14.518;2023-04-25T06:22:52;8.40;1.00
13694;DHT22;6919;52.344;14.518;2023-04-25T06:25:22;8.50;1.00
13694;DHT22;6919;52.344;14.518;2023-04-25T06:27:50;8.70;99.90
13694;DHT22;6919;52.344;14.518;2023-04-25T06:30:18;8.90;99.90
13694;DHT22;6919;52.344;14.518;2023-04-25T06:32:50;9.00;99.90
13694;DHT22;6919;52.344;14.518;2023-04-25T06:35:18;9.00;99.90
13694;DHT22;6919;52.344;14.518;2023-04-25T06:37:47;9.00;1.00
13694;DHT22;6919;52.344;14.518;2023-04-25T06:40:15;9.10;1.00
13694;DHT22;6919;52.344;14.518;2023-04-25T06:42:45;9.20;1.00
13694;DHT22;6919;52.344;14.518;2023-04-25T06:45:13;9.00;1.00
13694;DHT22;6919;52.344;14.518;2023-04-25T06:47:41;8.90;21.30
13694;DHT22;6919;52.344;14.518;2023-04-25T06:50:10;9.00;1.00
13694;DHT22;6919;52.344;14.518;2023-04-25T06:52:38;8.80;99.90
13694;DHT22;6919;52.344;14.518;2023-04-25T06:55:07;9.00;1.00
13694;DHT22;6919;52.344;14.518;2023-04-25T06:57:37;9.10;99.90
13694;DHT22;6919;52.344;14.518;2023-04-25T07:00:08;9.50;1.00
13694;DHT22;6919;52.344;14.518;2023-04-25T07:02:37;9.50;99.90
13694;DHT22;6919;52.344;14.518;2023-04-25T07:05:06;9.70;1.00
13694;DHT22;6919;52.344;14.518;2023-04-25T07:07:34;9.80;99.90
13694;DHT22;6919;52.344;14.518;2023-04-25T07:10:03;9.80;99.90
13694;DHT22;6919;52.344;14.518;2023-04-25T07:12:32;9.80;99.90
13694;DHT22;6919;52.344;14.518;2023-04-25T07:15:00;9.70;31.60
13694;DHT22;6919;52.344;14.518;2023-04-25T07:17:34;9.90;79.80
13694;DHT22;6919;52.344;14.518;2023-04-25T07:20:02;10.10;99.90
13694;DHT22;6919;52.344;14.518;2023-04-25T07:22:32;10.10;1.00
13694;DHT22;6919;52.344;14.518;2023-04-25T07:25:00;10.30;1.00
13694;DHT22;6919;52.344;14.518;2023-04-25T07:27:29;10.40;1.00
13694;DHT22;6919;52.344;14.518;2023-04-25T07:29:57;10.20;1.00
13694;DHT22;6919;52.344;14.518;2023-04-25T07:32:26;10.40;1.00
13694;DHT22;6919;52.344;14.518;2023-04-25T07:34:56;10.60;1.00
13694;DHT22;6919;52.344;14.518;2023-04-25T07:37:24;10.80;1.00
13694;DHT22;6919;52.344;14.518;2023-04-25T07:39:53;10.80;1.00
13694;DHT22;6919;52.344;14.518;2023-04-25T07:42:22;11.10;1.00
13694;DHT22;6919;52.344;14.518;2023-04-25T07:44:50;10.90;1.00
13694;DHT22;6919;52.344;14.518;2023-04-25T07:47:18;11.00;1.00
13694;DHT22;6919;52.344;14.518;2023-04-25T07:49:47;11.10;1.00
13694;DHT22;6919;52.344;14.518;2023-04-25T07:52:16;11.20;1.00
13694;DHT22;6919;52.344;14.518;2023-04-25T07:54:45;11.30;1.00
13694;DHT22;6919;52.344;14.518;2023-04-25T07:57:13;11.20;1.00
13694;DHT22;6919;52.344;14.518;2023-04-25T07:59:43;11.30;1.00
13694;DHT22;6919;52.344;14.518;2023-04-25T08:02:11;11.70;1.00
13694;DHT22;6919;52.344;14.518;2023-04-25T08:04:40;11.70;1.00
13694;DHT22;6919;52.344;14.518;2023-04-25T08:07:08;11.90;1.00
13694;DHT22;6919;52.344;14.518;2023-04-25T08:09:38;11.90;99.90
13694;DHT22;6919;52.344;14.518;2023-04-25T08:12:07;11.60;99.90
13694;DHT22;6919;52.344;14.518;2023-04-25T08:14:35;11.20;1.00
13694;DHT22;6919;52.344;14.518;2023-04-25T08:17:04;11.50;99.90
13694;DHT22;6919;52.344;14.518;2023-04-25T08:19:32;11.40;1.00
13694;DHT22;6919;52.344;14.518;2023-04-25T08:22:04;11.50;99.90
13694;DHT22;6919;52.344;14.518;2023-04-25T08:24:32;11.10;1.00
13694;DHT22;6919;52.344;14.518;2023-04-25T08:27:06;10.90;1.00
13694;DHT22;6919;52.344;14.518;2023-04-25T08:29:34;10.80;1.00
13694;DHT22;6919;52.344;14.518;2023-04-25T08:32:04;11.30;1.00
13694;DHT22;6919;52.344;14.518;2023-04-25T08:34:33;11.30;1.00
13694;DHT22;6919;52.344;14.518;2023-04-25T08:37:03;11.50;1.00
13694;DHT22;6919;52.344;14.518;2023-04-25T08:39:32;11.60;1.00
13694;DHT22;6919;52.344;14.518;2023-04-25T08:42:02;12.00;1.00
13694;DHT22;6919;52.344;14.518;2023-04-25T08:44:35;12.00;99.90
13694;DHT22;6919;52.344;14.518;2023-04-25T08:47:04;12.30;99.90
13694;DHT22;6919;52.344;14.518;2023-04-25T08:49:34;12.10;99.90
13694;DHT22;6919;52.344;14.518;2023-04-25T08:52:04;11.90;99.90
13694;DHT22;6919;52.344;14.518;2023-04-25T08:54:33;11.70;99.90
13694;DHT22;6919;52.344;14.518;2023-04-25T08:57:08;11.80;99.90
13694;DHT22;6919;52.344;14.518;2023-04-25T08:59:37;11.70;1.00
13694;DHT22;6919;52.344;14.518;2023-04-25T09:02:10;11.50;1.00
13694;DHT22;6919;52.344;14.518;2023-04-25T09:04:43;11.50;1.00
13694;DHT22;6919;52.344;14.518;2023-04-25T09:07:12;11.20;1.00
13694;DHT22;6919;52.344;14.518;2023-04-25T09:09:42;11.20;1.00
13694;DHT22;6919;52.344;14.518;2023-04-25T09:12:12;11.30;1.00
13694;DHT22;6919;52.344;14.518;2023-04-25T09:14:41;11.60;1.00
13694;DHT22;6919;52.344;14.518;2023-04-25T09:17:10;12.00;1.00
13694;DHT22;6919;52.344;14.518;2023-04-25T09:19:39;12.40;99.90
13694;DHT22;6919;52.344;14.518;2023-04-25T09:22:08;12.10;99.90
13694;DHT22;6919;52.344;14.518;2023-04-25T09:24:38;11.60;99.90
13694;DHT22;6919;52.344;14.518;2023-04-25T09:27:10;11.00;1.00
13694;DHT22;6919;52.344;14.518;2023-04-25T09:29:45;10.90;1.00
13694;DHT22;6919;52.344;14.518;2023-04-25T09:32:18;11.00;1.00
13694;DHT22;6919;52.344;14.518;2023-04-25T09:34:49;10.80;1.00
13694;DHT22;6919;52.344;14.518;2023-04-25T09:37:19;11.00;1.00
13694;DHT22;6919;52.344;14.518;2023-04-25T09:39:50;10.90;1.00
13694;DHT22;6919;52.344;14.518;2023-04-25T09:42:22;10.90;1.00
13694;DHT22;6919;52.344;14.518;2023-04-25T09:44:53;11.00;1.00
13694;DHT22;6919;52.344;14.518;2023-04-25T09:47:23;11.00;1.00
13694;DHT22;6919;52.344;14.518;2023-04-25T09:49:53;11.00;1.00
13694;DHT22;6919;52.344;14.518;2023-04-25T09:52:24;11.30;99.90
13694;DHT22;6919;52.344;14.518;2023-04-25T09:54:53;11.60;1.00
13694;DHT22;6919;52.344;14.518;2023-04-25T09:57:23;12.00;99.90
13694;DHT22;6919;52.344;14.518;2023-04-25T09:59:53;11.80;99.90
13694;DHT22;6919;52.344;14.518;2023-04-25T10:02:23;11.70;1.00
13694;DHT22;6919;52.344;14.518;2023-04-25T10:04:53;11.50;99.90
13694;DHT22;6919;52.344;14.518;2023-04-25T10:07:24;11.30;99.90
13694;DHT22;6919;52.344;14.518;2023-04-25T10:09:58;11.20;1.00
13694;DHT22;6919;52.344;14.518;2023-04-25T10:12:30;11.30;99.90
13694;DHT22;6919;52.344;14.518;2023-04-25T10:15:01;11.40;34.10
13694;DHT22;6919;52.344;14.518;2023-04-25T10:17:31;11.60;1.00
13694;DHT22;6919;52.344;14.518;2023-04-25T10:20:02;11.80;1.00
13694;DHT22;6919;52.344;14.518;2023-04-25T10:22:35;12.10;1.00
13694;DHT22;6919;52.344;14.518;2023-04-25T10:25:06;12.60;50.00
13694;DHT22;6919;52.344;14.518;2023-04-25T10:27:38;12.90;1.00
13694;DHT22;6919;52.344;14.518;2023-04-25T10:30:08;12.90;99.90
13694;DHT22;6919;52.344;14.518;2023-04-25T10:32:39;12.30;22.00
13694;DHT22;6919;52.344;14.518;2023-04-25T10:35:14;12.10;99.90
13694;DHT22;6919;52.344;14.518;2023-04-25T10:38:14;12.20;99.90
13694;DHT22;6919;52.344;14.518;2023-04-25T10:40:42;12.10;5.80
13694;DHT22;6919;52.344;14.518;2023-04-25T10:43:37;12.20;1.00
13694;DHT22;6919;52.344;14.518;2023-04-25T10:46:19;12.10;16.90
13694;DHT22;6919;52.344;14.518;2023-04-25T10:48:52;12.00;1.00
13694;DHT22;6919;52.344;14.518;2023-04-25T10:51:22;11.70;99.90
13694;DHT22;6919;52.344;14.518;2023-04-25T10:54:00;11.40;1.00
13694;DHT22;6919;52.344;14.518;2023-04-25T10:56:30;11.40;99.90
13694;DHT22;6919;52.344;14.518;2023-04-25T10:59:07;11.10;99.90
13694;DHT22;6919;52.344;14.518;2023-04-25T11:01:40;11.00;1.00
13694;DHT22;6919;52.344;14.518;2023-04-25T11:04:22;10.70;1.00
13694;DHT22;6919;52.344;14.518;2023-04-25T11:07:03;10.80;1.00
13694;DHT22;6919;52.344;14.518;2023-04-25T11:09:39;11.20;1.00
13694;DHT22;6919;52.344;14.518;2023-04-25T11:12:09;11.20;99.90
13694;DHT22;6919;52.344;14.518;2023-04-25T11:14:40;10.80;1.00
13694;DHT22;6919;52.344;14.518;2023-04-25T11:17:08;10.70;99.90
13694;DHT22;6919;52.344;14.518;2023-04-25T11:19:37;11.00;1.00
13694;DHT22;6919;52.344;14.518;2023-04-25T11:22:06;11.10;99.90
13694;DHT22;6919;52.344;14.518;2023-04-25T11:24:35;11.30;1.00
13694;DHT22;6919;52.344;14.518;2023-04-25T11:27:04;11.60;1.00
13694;DHT22;6919;52.344;14.518;2023-04-25T11:29:34;11.90;1.00
13694;DHT22;6919;52.344;14.518;2023-04-25T11:32:04;12.60;1.00
13694;DHT22;6919;52.344;14.518;2023-04-25T11:34:33;12.60;99.90
13694;DHT22;6919;52.344;14.518;2023-04-25T11:37:02;12.90;99.90
13694;DHT22;6919;52.344;14.518;2023-04-25T11:39:31;12.80;99.90
13694;DHT22;6919;52.344;14.518;2023-04-25T11:41:59;13.10;99.90
13694;DHT22;6919;52.344;14.518;2023-04-25T11:44:34;13.10;99.90
13694;DHT22;6919;52.344;14.518;2023-04-25T11:47:04;13.30;99.90
13694;DHT22;6919;52.344;14.518;2023-04-25T11:49:32;13.60;99.90
13694;DHT22;6919;52.344;14.518;2023-04-25T11:52:02;13.50;99.90
13694;DHT22;6919;52.344;14.518;2023-04-25T11:54:35;13.50;99.90
13694;DHT22;6919;52.344;14.518;2023-04-25T11:57:04;13.40;99.90
13694;DHT22;6919;52.344;14.518;2023-04-25T11:59:33;12.90;99.90
13694;DHT22;6919;52.344;14.518;2023-04-25T12:02:01;12.70;99.90
13694;DHT22;6919;52.344;14.518;2023-04-25T12:04:31;12.80;99.90
13694;DHT22;6919;52.344;14.518;2023-04-25T12:07:01;13.00;99.90
13694;DHT22;6919;52.344;14.518;2023-04-25T12:09:30;13.00;99.90
13694;DHT22;6919;52.344;14.518;2023-04-25T12:12:00;13.30;99.90
13694;DHT22;6919;52.344;14.518;2023-04-25T12:14:32;13.30;99.90
13694;DHT22;6919;52.344;14.518;2023-04-25T12:17:03;13.20;99.90
13694;DHT22;6919;52.344;14.518;2023-04-25T12:19:37;13.20;99.90
13694;DHT22;6919;52.344;14.518;2023-04-25T12:22:19;13.20;99.90
13694;DHT22;6919;52.344;14.518;2023-04-25T12:24:49;13.30;99.90
13694;DHT22;6919;52.344;14.518;2023-04-25T12:27:20;13.40;99.90
13694;DHT22;6919;52.344;14.518;2023-04-25T12:29:52;13.50;99.90
13694;DHT22;6919;52.344;14.518;2023-04-25T12:32:21;13.50;99.90
13694;DHT22;6919;52.344;14.518;2023-04-25T12:34:52;13.30;99.90
13694;DHT22;6919;52.344;14.518;2023-04-25T12:37:21;13.70;99.90
13694;DHT22;6919;52.344;14.518;2023-04-25T12:39:49;14.10;99.90
13694;DHT22;6919;52.344;14.518;2023-04-25T12:42:18;14.20;99.90
13694;DHT22;6919;52.344;14.518;2023-04-25T12:44:47;14.50;99.90
13694;DHT22;6919;52.344;14.518;2023-04-25T12:47:15;14.30;99.90
13694;DHT22;6919;52.344;14.518;2023-04-25T12:49:43;13.70;99.90
13694;DHT22;6919;52.344;14.518;2023-04-25T12:52:13;13.10;99.90
13694;DHT22;6919;52.344;14.518;2023-04-25T12:54:42;12.80;99.90
13694;DHT22;6919;52.344;14.518;2023-04-25T12:57:10;12.80;99.90
13694;DHT22;6919;52.344;14.518;2023-04-25T12:59:39;12.50;99.90
13694;DHT22;6919;52.344;14.518;2023-04-25T13:02:07;12.60;99.90
13694;DHT22;6919;52.344;14.518;2023-04-25T13:04:35;12.40;99.90
13694;DHT22;6919;52.344;14.518;2023-04-25T13:07:04;12.40;99.90
13694;DHT22;6919;52.344;14.518;2023-04-25T13:09:33;12.50;99.90
13694;DHT22;6919;52.344;14.518;2023-04-25T13:12:02;12.60;99.90
13694;DHT22;6919;52.344;14.518;2023-04-25T13:14:30;12.40;99.90
13694;DHT22;6919;52.344;14.518;2023-04-25T13:16:59;12.20;99.90
13694;DHT22;6919;52.344;14.518;2023-04-25T13:19:27;12.20;99.90
13694;DHT22;6919;52.344;14.518;2023-04-25T13:21:56;12.30;99.90
13694;DHT22;6919;52.344;14.518;2023-04-25T13:24:25;12.10;99.90
13694;DHT22;6919;52.344;14.518;2023-04-25T13:26:55;12.00;99.90
13694;DHT22;6919;52.344;14.518;2023-04-25T13:29:24;11.90;99.90
13694;DHT22;6919;52.344;14.518;2023-04-25T13:31:52;11.80;99.90
13694;DHT22;6919;52.344;14.518;2023-04-25T13:34:21;11.60;99.90
13694;DHT22;6919;52.344;14.518;2023-04-25T13:36:49;11.60;99.90
13694;DHT22;6919;52.344;14.518;2023-04-25T13:39:18;11.60;99.90
13694;DHT22;6919;52.344;14.518;2023-04-25T13:41:47;11.80;99.90
13694;DHT22;6919;52.344;14.518;2023-04-25T13:44:16;11.80;99.90
13694;DHT22;6919;52.344;14.518;2023-04-25T13:46:45;11.80;99.90
13694;DHT22;6919;52.344;14.518;2023-04-25T13:49:14;12.00;99.90
13694;DHT22;6919;52.344;14.518;2023-04-25T13:51:42;12.10;99.90
13694;DHT22;6919;52.344;14.518;2023-04-25T13:54:11;12.20;99.90
13694;DHT22;6919;52.344;14.518;2023-04-25T13:56:39;12.60;99.90
13694;DHT22;6919;52.344;14.518;2023-04-25T13:59:09;12.70;99.90
13694;DHT22;6919;52.344;14.518;2023-04-25T14:01:39;12.50;99.90
13694;DHT22;6919;52.344;14.518;2023-04-25T14:04:07;12.70;99.90
13694;DHT22;6919;52.344;14.518;2023-04-25T14:06:36;12.60;99.90
13694;DHT22;6919;52.344;14.518;2023-04-25T14:09:04;12.60;99.90
13694;DHT22;6919;52.344;14.518;2023-04-25T14:11:33;12.50;99.90
13694;DHT22;6919;52.344;14.518;2023-04-25T14:14:02;12.40;99.90
13694;DHT22;6919;52.344;14.518;2023-04-25T14:16:30;12.10;99.90
13694;DHT22;6919;52.344;14.518;2023-04-25T14:19:00;12.20;99.90
13694;DHT22;6919;52.344;14.518;2023-04-25T14:21:29;12.10;99.90
13694;DHT22;6919;52.344;14.518;2023-04-25T14:23:59;11.90;99.90
13694;DHT22;6919;52.344;14.518;2023-04-25T14:26:27;11.80;99.90
13694;DHT22;6919;52.344;14.518;2023-04-25T14:28:55;11.80;99.90
13694;DHT22;6919;52.344;14.518;2023-04-25T14:31:24;11.70;99.90
13694;DHT22;6919;52.344;14.518;2023-04-25T14:33:53;11.60;99.90
13694;DHT22;6919;52.344;14.518;2023-04-25T14:36:26;11.70;99.90
13694;DHT22;6919;52.344;14.518;2023-04-25T14:38:55;11.80;99.90
13694;DHT22;6919;52.344;14.518;2023-04-25T14:41:24;12.00;99.90
13694;DHT22;6919;52.344;14.518;2023-04-25T14:43:53;12.20;99.90
13694;DHT22;6919;52.344;14.518;2023-04-25T14:46:23;12.30;99.90
13694;DHT22;6919;52.344;14.518;2023-04-25T14:48:52;12.40;99.90
13694;DHT22;6919;52.344;14.518;2023-04-25T14:51:22;12.30;99.90
13694;DHT22;6919;52.344;14.518;2023-04-25T14:53:52;12.00;99.90
13694;DHT22;6919;52.344;14.518;2023-04-25T14:56:21;11.90;99.90
13694;DHT22;6919;52.344;14.518;2023-04-25T14:58:49;11.80;99.90
13694;DHT22;6919;52.344;14.518;2023-04-25T15:01:18;11.90;99.90
13694;DHT22;6919;52.344;14.518;2023-04-25T15:03:48;11.90;99.90
13694;DHT22;6919;52.344;14.518;2023-04-25T15:06:18;11.80;99.90
13694;DHT22;6919;52.344;14.518;2023-04-25T15:08:46;11.80;99.90
13694;DHT22;6919;52.344;14.518;2023-04-25T15:11:16;11.70;99.90
13694;DHT22;6919;52.344;14.518;2023-04-25T15:13:44;11.50;99.90
13694;DHT22;6919;52.344;14.518;2023-04-25T15:16:13;11.50;99.90
13694;DHT22;6919;52.344;14.518;2023-04-25T15:18:41;11.40;99.90
13694;DHT22;6919;52.344;14.518;2023-04-25T15:21:10;11.50;99.90
13694;DHT22;6919;52.344;14.518;2023-04-25T15:23:38;11.60;99.90
13694;DHT22;6919;52.344;14.518;2023-04-25T15:26:08;11.40;99.90
13694;DHT22;6919;52.344;14.518;2023-04-25T15:28:37;11.30;99.90
13694;DHT22;6919;52.344;14.518;2023-04-25T15:31:06;11.30;99.90
13694;DHT22;6919;52.344;14.518;2023-04-25T15:33:35;11.10;99.90
13694;DHT22;6919;52.344;14.518;2023-04-25T15:36:04;11.20;99.90
13694;DHT22;6919;52.344;14.518;2023-04-25T15:38:33;11.30;99.90
13694;DHT22;6919;52.344;14.518;2023-04-25T15:41:02;11.90;99.90
13694;DHT22;6919;52.344;14.518;2023-04-25T15:43:32;12.00;99.90
13694;DHT22;6919;52.344;14.518;2023-04-25T15:46:05;12.10;99.90
13694;DHT22;6919;52.344;14.518;2023-04-25T15:48:33;12.00;99.90
13694;DHT22;6919;52.344;14.518;2023-04-25T15:51:02;12.00;99.90
13694;DHT22;6919;52.344;14.518;2023-04-25T15:53:31;11.70;99.90
13694;DHT22;6919;52.344;14.518;2023-04-25T15:55:59;11.50;99.90
13694;DHT22;6919;52.344;14.518;2023-04-25T15:58:27;11.70;99.90
13694;DHT22;6919;52.344;14.518;2023-04-25T16:00:55;11.60;99.90